createdAt,value
2022-08-26T00:00:20.839Z,100246.38
2022-08-26T00:02:49.202Z,100241.28
2022-08-26T00:05:18.150Z,100244.38
2022-08-26T00:07:46.707Z,100246.47
2022-08-26T00:10:15.358Z,100254.03
2022-08-26T00:12:45.318Z,100253.53
2022-08-26T00:15:19.164Z,100250.44
2022-08-26T00:17:49.829Z,100248.03
2022-08-26T00:20:22.826Z,100255.06
2022-08-26T00:22:51.549Z,100258.84
2022-08-26T00:25:20.539Z,100251.19
2022-08-26T00:27:50.670Z,100252.34
2022-08-26T00:30:26.597Z,100253.44
2022-08-26T00:32:56.069Z,100247.50
2022-08-26T00:35:25.616Z,100256.63
2022-08-26T00:37:57.418Z,100252.25
2022-08-26T00:40:31.417Z,100247.16
2022-08-26T00:43:02.351Z,100250.09
2022-08-26T00:45:45.111Z,100246.81
2022-08-26T00:48:17.034Z,100244.28
2022-08-26T00:50:54.397Z,100251.84
2022-08-26T00:53:26.299Z,100246.75
2022-08-26T00:56:02.569Z,100252.38
2022-08-26T00:58:35.092Z,100246.53
2022-08-26T01:01:04.081Z,100247.78
2022-08-26T01:03:35.026Z,100253.41
2022-08-26T01:06:05.278Z,100245.63
2022-08-26T01:08:42.060Z,100244.88
2022-08-26T01:11:12.555Z,100248.81
2022-08-26T01:13:43.336Z,100245.63
2022-08-26T01:16:15.613Z,100251.22
2022-08-26T01:18:46.943Z,100251.47
2022-08-26T01:21:27.202Z,100246.63
2022-08-26T01:23:58.913Z,100246.03
2022-08-26T01:26:34.433Z,100241.06
2022-08-26T01:29:07.929Z,100242.16
2022-08-26T01:31:42.335Z,100245.94
2022-08-26T01:34:18.832Z,100245.34
2022-08-26T01:36:51.582Z,100250.09
2022-08-26T01:39:21.901Z,100252.16
2022-08-26T01:41:53.855Z,100262.13
2022-08-26T01:44:26.833Z,100266.88
2022-08-26T01:46:58.061Z,100261.78
2022-08-26T01:49:27.882Z,100263.72
2022-08-26T01:52:02.020Z,100269.44
2022-08-26T01:54:34.264Z,100260.78
2022-08-26T01:57:03.845Z,100265.44
2022-08-26T01:59:32.758Z,100265.53
2022-08-26T02:02:01.593Z,100257.91
2022-08-26T02:04:34.839Z,100258.16
2022-08-26T02:07:07.761Z,100261.91
2022-08-26T02:09:41.357Z,100261.19
2022-08-26T02:12:11.739Z,100260.34
2022-08-26T02:14:46.666Z,100251.69
2022-08-26T02:17:15.697Z,100257.13
2022-08-26T02:19:51.388Z,100257.38
2022-08-26T02:22:24.703Z,100254.00
2022-08-26T02:24:58.565Z,100254.25
2022-08-26T02:27:32.841Z,100264.28
2022-08-26T02:30:11.093Z,100266.50
2022-08-26T02:32:40.316Z,100263.31
2022-08-26T02:35:11.174Z,100261.00
2022-08-26T02:37:39.765Z,100263.91
2022-08-26T02:40:15.887Z,100256.13
2022-08-26T02:42:44.577Z,100256.38
2022-08-26T02:45:13.468Z,100261.72
2022-08-26T02:47:45.954Z,100253.00
2022-08-26T02:50:15.737Z,100264.75
2022-08-26T02:52:45.292Z,100261.47
2022-08-26T02:55:15.716Z,100266.09
2022-08-26T02:57:44.183Z,100260.97
2022-08-26T03:00:16.345Z,100258.41
2022-08-26T03:02:45.076Z,100260.38
2022-08-26T03:05:14.244Z,100264.88
2022-08-26T03:07:45.183Z,100265.09
2022-08-26T03:10:16.366Z,100259.97
2022-08-26T03:12:47.453Z,100253.91
2022-08-26T03:15:19.400Z,100254.16
2022-08-26T03:17:50.239Z,100258.75
2022-08-26T03:20:19.516Z,100259.97
2022-08-26T03:22:49.773Z,100268.06
2022-08-26T03:25:22.449Z,100269.16
2022-08-26T03:27:52.365Z,100266.69
2022-08-26T03:30:38.725Z,100266.91
2022-08-26T03:33:15.020Z,100269.94
2022-08-26T03:35:45.697Z,100262.03
2022-08-26T03:38:14.482Z,100262.28
2022-08-26T03:40:44.830Z,100261.66
2022-08-26T03:43:15.939Z,100255.47
2022-08-26T03:45:44.772Z,100261.03
2022-08-26T03:48:14.447Z,100259.34
2022-08-26T03:50:43.845Z,100258.47
2022-08-26T03:53:12.861Z,100263.94
2022-08-26T03:55:43.641Z,100256.19
2022-08-26T03:58:12.518Z,100261.50
2022-08-26T04:00:40.899Z,100263.44
2022-08-26T04:03:14.740Z,100252.91
2022-08-26T04:05:46.789Z,100265.34
2022-08-26T04:08:15.383Z,100260.25
2022-08-26T04:10:45.172Z,100258.56
2022-08-26T04:13:13.776Z,100259.53
2022-08-26T04:15:42.220Z,100262.44
2022-08-26T04:18:10.677Z,100266.03
2022-08-26T04:20:39.352Z,100259.00
2022-08-26T04:23:08.075Z,100272.47
2022-08-26T04:25:36.549Z,100262.00
2022-08-26T04:28:10.593Z,100264.81
2022-08-26T04:30:39.565Z,100268.44
2022-08-26T04:33:13.183Z,100277.38
2022-08-26T04:35:44.014Z,100265.03
2022-08-26T04:38:12.863Z,100266.00
2022-08-26T04:40:46.755Z,100270.34
2022-08-26T04:43:16.817Z,100268.53
2022-08-26T04:45:45.260Z,100269.38
2022-08-26T04:48:16.828Z,100268.44
2022-08-26T04:50:45.407Z,100268.44
2022-08-26T04:53:18.112Z,100268.22
2022-08-26T04:55:46.667Z,100266.25
2022-08-26T04:58:20.821Z,100276.59
2022-08-26T05:00:51.531Z,100271.88
2022-08-26T05:03:20.885Z,100278.59
2022-08-26T05:05:50.893Z,100280.19
2022-08-26T05:08:22.532Z,100286.03
2022-08-26T05:10:55.899Z,100284.94
2022-08-26T05:13:28.590Z,100296.25
2022-08-26T05:16:00.557Z,100288.94
2022-08-26T05:18:29.984Z,100292.38
2022-08-26T05:20:58.420Z,100287.78
2022-08-26T05:23:27.148Z,100291.16
2022-08-26T05:25:59.245Z,100299.16
2022-08-26T05:28:31.203Z,100293.81
2022-08-26T05:31:00.553Z,100288.63
2022-08-26T05:33:29.424Z,100288.72
2022-08-26T05:35:57.924Z,100290.91
2022-08-26T05:38:30.316Z,100292.06
2022-08-26T05:40:59.000Z,100289.63
2022-08-26T05:43:29.716Z,100300.53
2022-08-26T05:46:07.751Z,100306.34
2022-08-26T05:48:36.373Z,100315.53
2022-08-26T05:51:08.781Z,100324.47
2022-08-26T05:53:38.649Z,100327.03
2022-08-26T05:56:09.327Z,100325.97
2022-08-26T05:58:42.426Z,100322.09
2022-08-26T06:01:17.429Z,100322.63
2022-08-26T06:03:50.053Z,100316.09
2022-08-26T06:06:27.212Z,100315.75
2022-08-26T06:08:59.530Z,100321.59
2022-08-26T06:11:30.562Z,100314.00
2022-08-26T06:14:04.356Z,100322.41
2022-08-26T06:16:36.301Z,100320.13
2022-08-26T06:19:10.747Z,100327.66
2022-08-26T06:21:41.543Z,100334.28
2022-08-26T06:24:30.491Z,100331.84
2022-08-26T06:27:02.160Z,100326.91
2022-08-26T06:29:36.140Z,100327.16
2022-08-26T06:32:06.778Z,100324.84
2022-08-26T06:34:35.389Z,100338.72
2022-08-26T06:37:06.466Z,100341.75
2022-08-26T06:39:35.317Z,100339.59
2022-08-26T06:42:08.876Z,100341.03
2022-08-26T06:44:41.662Z,100327.44
2022-08-26T06:47:13.285Z,100333.44
2022-08-26T06:49:41.672Z,100339.25
2022-08-26T06:52:10.084Z,100336.09
2022-08-26T06:54:43.054Z,100335.63
2022-08-26T06:57:13.118Z,100334.19
2022-08-26T06:59:44.138Z,100332.47
2022-08-26T07:02:13.433Z,100336.59
2022-08-26T07:04:42.318Z,100335.84
2022-08-26T07:07:14.759Z,100343.09
2022-08-26T07:09:43.467Z,100339.75
2022-08-26T07:12:11.842Z,100338.91
2022-08-26T07:14:40.356Z,100336.75
2022-08-26T07:17:14.335Z,100348.03
2022-08-26T07:19:43.241Z,100344.09
2022-08-26T07:22:11.601Z,100350.13
2022-08-26T07:24:42.356Z,100342.00
2022-08-26T07:27:15.110Z,100343.09
2022-08-26T07:29:44.795Z,100342.75
2022-08-26T07:32:22.945Z,100346.97
2022-08-26T07:34:51.785Z,100347.25
2022-08-26T07:37:20.413Z,100347.25
2022-08-26T07:39:48.861Z,100339.19
2022-08-26T07:42:19.669Z,100345.28
2022-08-26T07:44:48.748Z,100343.50
2022-08-26T07:47:24.760Z,100335.34
2022-08-26T07:49:56.616Z,100335.72
2022-08-26T07:52:27.549Z,100338.91
2022-08-26T07:54:58.093Z,100341.28
2022-08-26T07:57:27.155Z,100333.44
2022-08-26T07:59:56.673Z,100341.69
2022-08-26T08:02:28.088Z,100350.00
2022-08-26T08:04:57.862Z,100338.69
2022-08-26T08:07:44.286Z,100348.03
2022-08-26T08:10:17.931Z,100349.72
2022-08-26T08:12:48.064Z,100338.25
2022-08-26T08:15:20.111Z,100336.13
2022-08-26T08:17:51.560Z,100342.59
2022-08-26T08:20:20.849Z,100342.53
2022-08-26T08:22:49.965Z,100340.56
2022-08-26T08:25:18.520Z,100349.88
2022-08-26T08:27:48.614Z,100343.19
2022-08-26T08:30:23.039Z,100339.50
2022-08-26T08:32:53.524Z,100338.47
2022-08-26T08:35:26.250Z,100339.25
2022-08-26T08:37:56.577Z,100343.13
2022-08-26T08:40:27.844Z,100336.00
2022-08-26T08:43:04.826Z,100338.38
2022-08-26T08:45:37.730Z,100334.66
2022-08-26T08:48:15.231Z,100338.06
2022-08-26T08:50:48.373Z,100341.84
2022-08-26T08:53:22.656Z,100352.06
2022-08-26T08:56:05.529Z,100339.25
2022-08-26T08:58:51.470Z,100350.34
2022-08-26T09:01:31.716Z,100345.13
2022-08-26T09:04:24.941Z,100343.47
2022-08-26T09:06:59.072Z,100337.19
2022-08-26T09:09:32.350Z,100342.56
2022-08-26T09:12:03.216Z,100333.50
2022-08-26T09:14:32.949Z,100332.66
2022-08-26T09:17:14.077Z,100339.84
2022-08-26T09:19:50.476Z,100331.28
2022-08-26T09:22:31.004Z,100342.41
2022-08-26T09:24:59.684Z,100337.59
2022-08-26T09:27:44.078Z,100336.53
2022-08-26T09:30:16.566Z,100337.31
2022-08-26T09:33:01.177Z,100332.31
2022-08-26T09:35:34.585Z,100325.94
2022-08-26T09:38:03.732Z,100325.09
2022-08-26T09:40:35.244Z,100329.66
2022-08-26T09:43:22.867Z,100326.72
2022-08-26T09:45:59.284Z,100323.41
2022-08-26T09:48:35.534Z,100325.94
2022-08-26T09:51:24.073Z,100323.03
2022-08-26T09:53:56.140Z,100321.34
2022-08-26T09:56:29.946Z,100315.75
2022-08-26T09:58:59.665Z,100309.34
2022-08-26T10:01:34.889Z,100310.88
2022-08-26T10:04:11.322Z,100306.44
2022-08-26T10:06:56.928Z,100295.63
2022-08-26T10:09:28.116Z,100290.78
2022-08-26T10:12:03.457Z,100287.13
2022-08-26T10:14:39.772Z,100274.50
2022-08-26T10:17:15.850Z,100265.91
2022-08-26T10:19:56.744Z,100266.22
2022-08-26T10:22:34.154Z,100264.31
2022-08-26T10:25:09.233Z,100265.19
2022-08-26T10:27:49.744Z,100260.75
2022-08-26T10:30:28.638Z,100270.19
2022-08-26T10:33:03.462Z,100254.97
2022-08-26T10:35:34.797Z,100261.28
2022-08-26T10:38:13.131Z,100260.78
2022-08-26T10:40:56.156Z,100258.44
2022-08-26T10:43:31.081Z,100257.50
2022-08-26T10:46:04.278Z,100263.63
2022-08-26T10:48:43.491Z,100267.13
2022-08-26T10:51:13.640Z,100271.75
2022-08-26T10:53:55.938Z,100269.22
2022-08-26T10:56:44.597Z,100271.47
2022-08-26T10:59:26.513Z,100255.84
2022-08-26T11:02:06.343Z,100262.66
2022-08-26T11:04:51.704Z,100249.00
2022-08-26T11:07:42.885Z,100247.50
2022-08-26T11:11:01.093Z,100234.97
2022-08-26T11:14:04.358Z,100237.19
2022-08-26T11:16:43.574Z,100234.38
2022-08-26T11:19:58.765Z,100237.34
2022-08-26T11:22:31.061Z,100230.25
2022-08-26T11:25:11.398Z,100231.81
2022-08-26T11:28:07.585Z,100232.50
2022-08-26T11:30:43.861Z,100235.28
2022-08-26T11:33:32.724Z,100225.81
2022-08-26T11:36:01.304Z,100228.69
2022-08-26T11:38:45.167Z,100229.81
2022-08-26T11:41:21.824Z,100220.75
2022-08-26T11:43:52.258Z,100219.03
2022-08-26T11:46:27.776Z,100214.47
2022-08-26T11:49:05.214Z,100214.16
2022-08-26T11:51:40.186Z,100214.81
2022-08-26T11:54:16.274Z,100206.56
2022-08-26T11:56:48.056Z,100202.31
2022-08-26T11:59:25.184Z,100201.44
2022-08-26T12:01:55.649Z,100201.91
2022-08-26T12:04:31.236Z,100201.16
2022-08-26T12:07:03.038Z,100201.66
2022-08-26T12:09:37.827Z,100196.66
2022-08-26T12:12:17.060Z,100190.38
2022-08-26T12:14:46.068Z,100188.91
2022-08-26T12:17:18.781Z,100189.31
2022-08-26T12:19:47.817Z,100194.13
2022-08-26T12:22:23.112Z,100189.31
2022-08-26T12:24:58.472Z,100186.75
2022-08-26T12:27:29.228Z,100178.69
2022-08-26T12:30:10.107Z,100167.66
2022-08-26T12:32:57.472Z,100166.38
2022-08-26T12:35:28.788Z,100163.22
2022-08-26T12:37:58.708Z,100163.59
2022-08-26T12:40:41.915Z,100168.88
2022-08-26T12:43:13.525Z,100167.88
2022-08-26T12:45:45.436Z,100161.00
2022-08-26T12:48:24.638Z,100154.41
2022-08-26T12:50:54.159Z,100152.34
2022-08-26T12:53:24.887Z,100144.72
2022-08-26T12:55:57.229Z,100136.81
2022-08-26T12:58:30.078Z,100140.53
2022-08-26T13:01:20.235Z,100132.56
2022-08-26T13:03:49.802Z,100139.16
2022-08-26T13:06:31.234Z,100122.22
2022-08-26T13:09:02.105Z,100116.88
2022-08-26T13:11:35.562Z,100118.41
2022-08-26T13:14:09.380Z,100112.00
2022-08-26T13:16:41.640Z,100105.19
2022-08-26T13:19:13.080Z,100107.22
2022-08-26T13:21:47.980Z,100101.41
2022-08-26T13:24:20.965Z,100093.44
2022-08-26T13:26:51.526Z,100087.94
2022-08-26T13:29:20.721Z,100089.19
2022-08-26T13:31:49.781Z,100083.63
2022-08-26T13:34:21.533Z,100082.03
2022-08-26T13:36:51.741Z,100078.97
2022-08-26T13:39:21.229Z,100084.47
2022-08-26T13:41:51.480Z,100077.63
2022-08-26T13:44:20.326Z,100075.91
2022-08-26T13:46:49.040Z,100077.00
2022-08-26T13:49:17.556Z,100079.34
2022-08-26T13:51:46.042Z,100079.66
2022-08-26T13:54:14.406Z,100081.47
2022-08-26T13:56:42.790Z,100073.97
2022-08-26T13:59:12.629Z,100080.53
2022-08-26T14:01:41.029Z,100083.75
2022-08-26T14:04:09.581Z,100085.03
2022-08-26T14:06:38.236Z,100085.78
2022-08-26T14:09:06.823Z,100087.50
2022-08-26T14:11:50.853Z,100078.66
2022-08-26T14:14:25.109Z,100075.25
2022-08-26T14:17:00.128Z,100079.06
2022-08-26T14:19:31.063Z,100080.47
2022-08-26T14:22:01.400Z,100083.34
2022-08-26T14:24:30.156Z,100080.00
2022-08-26T14:26:58.593Z,100079.94
2022-08-26T14:29:28.670Z,100067.63
2022-08-26T14:31:58.919Z,100080.03
2022-08-26T14:34:27.721Z,100068.44
2022-08-26T14:36:56.084Z,100069.03
2022-08-26T14:39:24.524Z,100069.72
2022-08-26T14:41:56.746Z,100070.06
2022-08-26T14:44:31.346Z,100078.81
2022-08-26T14:47:03.416Z,100073.16
2022-08-26T14:49:32.358Z,100072.47
2022-08-26T14:52:00.780Z,100066.56
2022-08-26T14:54:29.361Z,100060.09
2022-08-26T14:57:02.042Z,100073.72
2022-08-26T14:59:36.145Z,100072.47
2022-08-26T15:02:06.178Z,100072.25
2022-08-26T15:04:34.985Z,100064.97
2022-08-26T15:07:04.865Z,100068.31
2022-08-26T15:09:36.828Z,100068.69
2022-08-26T15:12:06.560Z,100071.66
2022-08-26T15:14:36.349Z,100082.28
2022-08-26T15:17:05.317Z,100091.50
2022-08-26T15:19:33.966Z,100089.81
2022-08-26T15:22:02.363Z,100098.00
2022-08-26T15:24:30.732Z,100103.94
2022-08-26T15:26:59.252Z,100105.44
2022-08-26T15:29:27.836Z,100106.88
2022-08-26T15:31:57.733Z,100121.88
2022-08-26T15:34:26.854Z,100110.19
2022-08-26T15:36:55.940Z,100118.22
2022-08-26T15:39:24.757Z,100114.69
2022-08-26T15:41:53.533Z,100108.41
2022-08-26T15:44:21.985Z,100107.09
2022-08-26T15:46:55.348Z,100121.72
2022-08-26T15:49:28.510Z,100121.31
2022-08-26T15:51:57.132Z,100117.06
2022-08-26T15:54:25.917Z,100114.00
2022-08-26T15:56:54.516Z,100126.75
2022-08-26T15:59:23.448Z,100133.25
2022-08-26T16:01:53.118Z,100128.53
2022-08-26T16:04:21.957Z,100146.63
2022-08-26T16:06:52.182Z,100143.63
2022-08-26T16:09:24.322Z,100150.50
2022-08-26T16:11:53.295Z,100159.75
2022-08-26T16:14:22.480Z,100163.22
2022-08-26T16:16:51.566Z,100171.56
2022-08-26T16:19:20.067Z,100175.53
2022-08-26T16:21:50.693Z,100168.28
2022-08-26T16:24:24.860Z,100173.06
2022-08-26T16:26:55.354Z,100184.94
2022-08-26T16:29:24.492Z,100181.06
2022-08-26T16:31:54.611Z,100183.59
2022-08-26T16:34:23.317Z,100192.91
2022-08-26T16:36:53.063Z,100191.22
2022-08-26T16:39:22.787Z,100195.91
2022-08-26T16:41:51.417Z,100194.41
2022-08-26T16:44:19.832Z,100197.25
2022-08-26T16:46:48.297Z,100190.53
2022-08-26T16:49:16.991Z,100182.06
2022-08-26T16:51:45.505Z,100191.84
2022-08-26T16:54:14.553Z,100188.69
2022-08-26T16:56:44.297Z,100190.56
2022-08-26T16:59:12.925Z,100195.28
2022-08-26T17:01:41.635Z,100195.25
2022-08-26T17:04:10.125Z,100197.94
2022-08-26T17:06:38.550Z,100191.16
2022-08-26T17:09:07.240Z,100194.38
2022-08-26T17:11:36.019Z,100199.31
2022-08-26T17:14:06.590Z,100211.34
2022-08-26T17:16:35.344Z,100205.94
2022-08-26T17:19:05.537Z,100213.31
2022-08-26T17:21:35.719Z,100205.34
2022-08-26T17:24:05.899Z,100215.59
2022-08-26T17:26:34.498Z,100211.59
2022-08-26T17:29:03.174Z,100212.56
2022-08-26T17:31:33.089Z,100221.56
2022-08-26T17:34:01.504Z,100226.81
2022-08-26T17:36:30.061Z,100214.63
2022-08-26T17:38:59.533Z,100220.28
2022-08-26T17:41:28.785Z,100222.38
2022-08-26T17:43:57.486Z,100213.41
2022-08-26T17:46:26.602Z,100225.78
2022-08-26T17:48:56.849Z,100228.38
2022-08-26T17:51:25.396Z,100225.94
2022-08-26T17:53:54.002Z,100226.88
2022-08-26T17:56:25.477Z,100239.41
2022-08-26T17:58:54.845Z,100229.25
2022-08-26T18:01:27.559Z,100236.09
2022-08-26T18:04:00.441Z,100227.63
2022-08-26T18:06:30.291Z,100236.16
2022-08-26T18:08:59.429Z,100232.91
2022-08-26T18:11:28.585Z,100227.16
2022-08-26T18:13:56.948Z,100233.09
2022-08-26T18:16:25.982Z,100240.78
2022-08-26T18:18:55.921Z,100243.06
2022-08-26T18:21:28.831Z,100247.88
2022-08-26T18:23:57.806Z,100240.13
2022-08-26T18:26:29.645Z,100237.88
2022-08-26T18:28:58.443Z,100239.16
2022-08-26T18:31:27.762Z,100243.16
2022-08-26T18:34:00.197Z,100234.38
2022-08-26T18:36:31.477Z,100235.69
2022-08-26T18:39:00.570Z,100236.00
2022-08-26T18:41:33.387Z,100239.94
2022-08-26T18:44:01.960Z,100244.78
2022-08-26T18:46:30.462Z,100246.91
2022-08-26T18:49:00.337Z,100249.19
2022-08-26T18:51:31.897Z,100260.22
2022-08-26T18:54:02.487Z,100270.56
2022-08-26T18:56:31.374Z,100278.03
2022-08-26T18:59:00.097Z,100278.50
2022-08-26T19:01:34.043Z,100277.06
2022-08-26T19:04:06.501Z,100282.06
2022-08-26T19:06:36.917Z,100285.16
2022-08-26T19:09:08.908Z,100284.59
2022-08-26T19:11:38.358Z,100287.88
2022-08-26T19:14:14.207Z,100292.81
2022-08-26T19:16:44.808Z,100296.78
2022-08-26T19:19:15.376Z,100304.41
2022-08-26T19:21:44.117Z,100301.28
2022-08-26T19:24:17.359Z,100303.56
2022-08-26T19:26:48.932Z,100304.97
2022-08-26T19:29:20.517Z,100304.53
2022-08-26T19:31:49.048Z,100305.81
2022-08-26T19:34:20.686Z,100308.88
2022-08-26T19:36:50.500Z,100304.78
2022-08-26T19:39:18.845Z,100313.13
2022-08-26T19:41:47.805Z,100313.41
2022-08-26T19:44:51.235Z,100317.22
2022-08-26T19:47:19.668Z,100312.25
2022-08-26T19:49:53.376Z,100317.75
2022-08-26T19:52:22.583Z,100316.47
2022-08-26T19:54:58.501Z,100315.47
2022-08-26T19:57:27.226Z,100319.16
2022-08-26T19:59:55.678Z,100330.00
2022-08-26T20:02:24.541Z,100324.06
2022-08-26T20:04:54.424Z,100335.09
2022-08-26T20:07:23.084Z,100337.91
2022-08-26T20:09:51.558Z,100334.63
2022-08-26T20:12:20.315Z,100343.69
2022-08-26T20:14:48.725Z,100339.59
2022-08-26T20:17:17.389Z,100339.84
2022-08-26T20:20:03.469Z,100345.34
2022-08-26T20:22:34.122Z,100344.78
2022-08-26T20:25:02.828Z,100344.06
2022-08-26T20:27:38.035Z,100354.78
2022-08-26T20:30:10.262Z,100347.72
2022-08-26T20:32:39.734Z,100349.56
2022-08-26T20:35:12.028Z,100348.84
2022-08-26T20:37:42.908Z,100352.50
2022-08-26T20:40:13.891Z,100361.69
2022-08-26T20:42:42.493Z,100350.09
2022-08-26T20:45:11.905Z,100362.66
2022-08-26T20:47:40.888Z,100351.22
2022-08-26T20:50:10.120Z,100356.56
2022-08-26T20:52:38.559Z,100361.22
2022-08-26T20:55:09.921Z,100359.53
2022-08-26T20:57:38.580Z,100351.72
2022-08-26T21:00:08.465Z,100348.31
2022-08-26T21:02:37.439Z,100347.59
2022-08-26T21:05:06.991Z,100341.81
2022-08-26T21:07:35.958Z,100336.00
2022-08-26T21:10:04.954Z,100343.31
2022-08-26T21:12:35.479Z,100332.84
2022-08-26T21:15:04.620Z,100334.09
2022-08-26T21:17:33.245Z,100338.03
2022-08-26T21:20:02.125Z,100331.22
2022-08-26T21:22:30.821Z,100325.44
2022-08-26T21:24:59.180Z,100330.19
2022-08-26T21:27:27.888Z,100330.59
2022-08-26T21:29:58.116Z,100341.69
2022-08-26T21:32:26.859Z,100346.47
2022-08-26T21:34:57.204Z,100354.03
2022-08-26T21:37:26.793Z,100359.66
2022-08-26T21:39:58.903Z,100356.28
2022-08-26T21:42:32.956Z,100364.44
2022-08-26T21:45:04.188Z,100363.59
2022-08-26T21:47:32.887Z,100359.22
2022-08-26T21:50:01.553Z,100377.09
2022-08-26T21:52:30.232Z,100372.63
2022-08-26T21:54:59.820Z,100374.31
2022-08-26T21:57:29.987Z,100376.97
2022-08-26T21:59:58.976Z,100377.97
2022-08-26T22:02:29.145Z,100377.97
2022-08-26T22:04:57.532Z,100378.94
2022-08-26T22:07:26.090Z,100380.78
2022-08-26T22:09:54.741Z,100381.84
2022-08-26T22:12:23.153Z,100389.88
2022-08-26T22:14:51.604Z,100387.44
2022-08-26T22:17:19.960Z,100389.28
2022-08-26T22:19:50.087Z,100389.44
2022-08-26T22:22:18.581Z,100387.84
2022-08-26T22:24:46.969Z,100391.38
2022-08-26T22:27:15.824Z,100393.31
2022-08-26T22:29:46.490Z,100393.31
2022-08-26T22:32:15.376Z,100388.22
2022-08-26T22:34:44.046Z,100377.78
2022-08-26T22:37:13.873Z,100391.31
2022-08-26T22:39:42.572Z,100379.97
2022-08-26T22:42:10.980Z,100375.84
2022-08-26T22:44:41.171Z,100384.16
2022-08-26T22:47:24.989Z,100381.72
2022-08-26T22:49:53.437Z,100387.34
2022-08-26T22:52:23.168Z,100390.25
2022-08-26T22:54:52.005Z,100388.94
2022-08-26T22:57:20.797Z,100392.69
2022-08-26T22:59:49.557Z,100392.25
2022-08-26T23:02:18.188Z,100384.44
2022-08-26T23:04:46.652Z,100388.34
2022-08-26T23:07:15.041Z,100387.88
2022-08-26T23:09:45.098Z,100389.94
2022-08-26T23:12:13.718Z,100395.44
2022-08-26T23:14:43.886Z,100400.06
2022-08-26T23:17:14.322Z,100397.38
2022-08-26T23:19:42.986Z,100401.03
2022-08-26T23:22:11.573Z,100394.94
2022-08-26T23:24:40.869Z,100398.81
2022-08-26T23:27:11.232Z,100405.13
2022-08-26T23:29:39.820Z,100399.91
2022-08-26T23:32:08.359Z,100401.84
2022-08-26T23:34:54.289Z,100404.69
2022-08-26T23:37:23.261Z,100407.69
2022-08-26T23:39:54.417Z,100393.59
2022-08-26T23:42:24.336Z,100400.06
2022-08-26T23:44:56.616Z,100396.66
2022-08-26T23:47:25.173Z,100398.59
2022-08-26T23:49:53.928Z,100388.88
2022-08-26T23:52:39.866Z,100392.50
2022-08-26T23:55:10.640Z,100390.94
2022-08-26T23:57:40.516Z,100388.38
